Time;durP1;ratioP1;P1;durP2;ratioP2;P2;SDS_P1;SDS_P2;PMS_P1;PMS_P2;Temp;Humidity;BMP_temperature;BMP_pressure;BME280_temperature;BME280_humidity;BME280_pressure;Samples;Min_cycle;Max_cycle;Signal;HPM_P1;HPM_P2
2022/07/26 00:01:06;;;;;;;9.35;8.45;;;26.70;52.60;;;;;;5002156;28;20057;-48
2022/07/26 00:03:32;;;;;;;7.68;6.97;;;26.60;52.60;;;;;;5014346;28;20117;-47
2022/07/26 00:05:58;;;;;;;7.97;7.25;;;26.60;52.60;;;;;;5001508;28;20030;-49
2022/07/26 00:08:25;;;;;;;7.72;7.03;;;26.60;52.70;;;;;;5002407;28;20030;-48
2022/07/26 00:10:51;;;;;;;7.47;6.78;;;26.60;52.50;;;;;;5002564;28;20122;-48
2022/07/26 00:13:19;;;;;;;7.55;6.85;;;26.60;52.60;;;;;;5004987;28;20038;-49
2022/07/26 00:15:46;;;;;;;7.72;6.93;;;26.60;52.50;;;;;;5001883;28;20704;-48
2022/07/26 00:18:12;;;;;;;7.65;6.90;;;26.50;52.30;;;;;;5002387;28;20797;-47
2022/07/26 00:20:39;;;;;;;6.78;6.15;;;26.60;52.20;;;;;;5002277;28;20033;-48
2022/07/26 00:23:05;;;;;;;8.43;7.57;;;26.60;52.50;;;;;;5002196;28;20040;-48
2022/07/26 00:25:30;;;;;;;7.40;6.70;;;26.60;52.30;;;;;;5002514;28;20038;-48
2022/07/26 00:27:56;;;;;;;6.82;6.22;;;26.50;52.20;;;;;;5001669;28;20710;-49
2022/07/26 00:30:22;;;;;;;7.10;6.38;;;26.50;52.30;;;;;;5002063;28;20533;-48
2022/07/26 00:32:48;;;;;;;7.93;7.10;;;26.60;52.40;;;;;;5002294;28;20038;-47
2022/07/26 00:35:14;;;;;;;7.25;6.53;;;26.60;52.40;;;;;;5001062;28;20034;-49
2022/07/26 00:37:39;;;;;;;7.32;6.63;;;26.50;52.00;;;;;;5001771;28;20031;-49
2022/07/26 00:40:06;;;;;;;6.97;6.30;;;26.60;52.00;;;;;;5001377;28;20144;-49
2022/07/26 00:42:32;;;;;;;7.53;6.82;;;26.50;52.00;;;;;;5008198;28;20088;-47
2022/07/26 00:44:58;;;;;;;7.25;6.60;;;26.50;52.00;;;;;;5000362;28;20487;-48
2022/07/26 00:47:23;;;;;;;7.18;6.47;;;26.60;52.20;;;;;;5002396;28;20541;-48
2022/07/26 00:49:49;;;;;;;9.02;7.20;;;26.50;52.00;;;;;;5000755;28;20037;-49
2022/07/26 00:52:16;;;;;;;7.63;6.85;;;26.50;51.80;;;;;;5001730;28;20029;-48
2022/07/26 00:54:44;;;;;;;6.78;6.13;;;26.50;51.80;;;;;;5001778;28;20139;-48
2022/07/26 00:57:10;;;;;;;6.95;6.25;;;26.50;51.70;;;;;;5000953;28;20087;-50
2022/07/26 00:59:36;;;;;;;8.05;7.25;;;26.50;51.80;;;;;;5001977;28;20022;-48
2022/07/26 01:02:05;;;;;;;8.15;7.22;;;26.50;51.90;;;;;;4999971;28;20589;-48
2022/07/26 01:04:31;;;;;;;9.88;8.85;;;26.40;52.20;;;;;;5001193;28;20022;-48
2022/07/26 01:06:57;;;;;;;9.13;8.20;;;26.30;52.80;;;;;;5015081;28;20018;-48
2022/07/26 01:09:23;;;;;;;12.07;8.88;;;26.30;52.80;;;;;;5001292;28;20044;-48
2022/07/26 01:11:50;;;;;;;15.07;8.68;;;26.30;53.20;;;;;;5000320;28;20628;-47
2022/07/26 01:14:20;;;;;;;16.02;8.82;;;26.30;53.30;;;;;;5000460;28;20057;-48
2022/07/26 01:16:46;;;;;;;14.52;8.30;;;26.30;53.10;;;;;;5002183;28;20033;-47
2022/07/26 01:19:11;;;;;;;18.30;8.55;;;26.30;52.80;;;;;;5001023;28;20084;-48
2022/07/26 01:21:37;;;;;;;11.50;7.60;;;26.30;52.50;;;;;;5000602;28;20041;-49
2022/07/26 01:24:03;;;;;;;13.23;7.82;;;26.30;52.50;;;;;;5000984;28;20553;-48
2022/07/26 01:26:29;;;;;;;11.88;6.35;;;26.30;52.70;;;;;;4999123;28;21069;-48
2022/07/26 01:28:55;;;;;;;11.57;6.32;;;26.30;52.70;;;;;;5000630;28;20034;-49
2022/07/26 01:31:21;;;;;;;9.15;5.65;;;26.20;53.20;;;;;;5000127;28;20490;-48
2022/07/26 01:33:47;;;;;;;7.88;5.40;;;26.10;53.70;;;;;;5000815;28;20125;-48
2022/07/26 01:36:12;;;;;;;10.55;5.63;;;26.10;53.30;;;;;;4999712;28;20482;-48
2022/07/26 01:38:39;;;;;;;10.40;5.50;;;26.20;53.00;;;;;;5000225;28;20463;-48
2022/07/26 01:41:05;;;;;;;13.80;5.70;;;26.30;52.80;;;;;;5001229;28;20045;-47
2022/07/26 01:43:31;;;;;;;12.85;5.13;;;26.30;52.50;;;;;;5000361;28;20018;-48
2022/07/26 01:45:57;;;;;;;8.57;4.88;;;26.30;52.30;;;;;;5000861;28;20030;-47
2022/07/26 01:48:23;;;;;;;13.02;5.68;;;26.30;52.00;;;;;;5015574;28;20040;-48
2022/07/26 01:50:48;;;;;;;10.63;4.82;;;26.40;52.00;;;;;;5000996;28;20065;-48
2022/07/26 01:53:14;;;;;;;14.52;5.22;;;26.40;51.60;;;;;;5000258;28;20018;-48
2022/07/26 01:55:40;;;;;;;7.45;4.13;;;26.50;51.30;;;;;;5000208;28;20081;-47
2022/07/26 01:58:06;;;;;;;6.30;4.45;;;26.50;51.20;;;;;;5000891;28;20018;-48
2022/07/26 02:00:33;;;;;;;12.85;5.40;;;26.50;51.00;;;;;;4999939;28;20018;-48
2022/07/26 02:02:59;;;;;;;28.35;6.15;;;26.50;50.80;;;;;;5000965;28;20026;-47
2022/07/26 02:05:25;;;;;;;52.60;9.57;;;26.60;50.60;;;;;;4997648;28;20398;-47
2022/07/26 02:07:50;;;;;;;59.25;10.73;;;26.60;50.60;;;;;;5000977;28;20037;-48
2022/07/26 02:10:16;;;;;;;40.55;9.18;;;26.60;50.60;;;;;;5000501;28;20091;-48
2022/07/26 02:12:42;;;;;;;32.15;7.97;;;26.60;50.60;;;;;;4999893;28;20037;-48
2022/07/26 02:15:09;;;;;;;19.17;6.28;;;26.60;50.60;;;;;;5001631;28;20025;-48
2022/07/26 02:17:35;;;;;;;26.00;5.90;;;26.70;50.60;;;;;;5002506;28;20029;-48
2022/07/26 02:20:01;;;;;;;15.80;5.30;;;26.70;50.60;;;;;;5002784;28;20026;-47
2022/07/26 02:22:26;;;;;;;11.55;5.05;;;26.70;50.50;;;;;;5003269;28;20535;-47
2022/07/26 02:24:52;;;;;;;9.50;4.97;;;26.70;50.50;;;;;;5018986;28;20037;-48
2022/07/26 02:27:18;;;;;;;9.68;4.32;;;26.70;50.40;;;;;;5003961;28;20033;-48
2022/07/26 02:29:44;;;;;;;9.57;4.18;;;26.80;50.40;;;;;;5003976;28;20493;-48
2022/07/26 02:32:12;;;;;;;11.60;4.80;;;26.80;50.20;;;;;;5004096;28;20038;-48
2022/07/26 02:34:38;;;;;;;8.98;4.18;;;26.80;50.20;;;;;;5000004;28;20690;-47
2022/07/26 02:37:04;;;;;;;9.90;4.57;;;26.80;50.10;;;;;;5002119;28;20030;-48
2022/07/26 02:39:30;;;;;;;8.13;4.03;;;26.80;50.10;;;;;;5003771;28;20061;-47
2022/07/26 02:41:57;;;;;;;6.97;3.50;;;26.80;50.00;;;;;;5003759;28;20033;-47
2022/07/26 02:44:24;;;;;;;4.85;3.40;;;26.80;50.00;;;;;;5002874;28;20028;-48
2022/07/26 02:46:50;;;;;;;7.85;3.85;;;26.90;49.60;;;;;;5003103;28;20493;-49
2022/07/26 02:49:16;;;;;;;5.53;3.20;;;26.90;49.60;;;;;;5000596;28;20049;-48
2022/07/26 02:51:42;;;;;;;9.10;4.32;;;26.90;49.70;;;;;;5002259;28;20064;-48
2022/07/26 02:54:08;;;;;;;6.38;3.40;;;26.90;49.50;;;;;;5003462;28;20045;-48
2022/07/26 02:56:34;;;;;;;7.18;3.97;;;26.90;49.60;;;;;;5002802;28;20080;-48
2022/07/26 02:58:59;;;;;;;8.32;3.50;;;26.90;49.50;;;;;;5002475;28;20079;-47
2022/07/26 03:01:25;;;;;;;7.55;4.03;;;27.00;50.30;;;;;;5003519;28;20022;-48
2022/07/26 03:03:51;;;;;;;6.75;3.63;;;26.90;49.60;;;;;;5002104;28;20087;-48
2022/07/26 03:06:17;;;;;;;9.00;3.60;;;26.90;49.60;;;;;;5000972;28;20038;-47
2022/07/26 03:08:43;;;;;;;5.97;2.97;;;27.00;50.20;;;;;;5003421;28;20029;-47
2022/07/26 03:11:09;;;;;;;10.25;3.50;;;27.00;50.10;;;;;;5002242;28;20034;-48
2022/07/26 03:13:35;;;;;;;5.30;3.33;;;27.00;50.10;;;;;;5003785;28;20030;-48
2022/07/26 03:16:01;;;;;;;5.22;3.20;;;27.00;50.00;;;;;;5002408;28;20036;-49
2022/07/26 03:18:27;;;;;;;6.30;3.10;;;27.00;50.00;;;;;;5002412;28;20473;-48
2022/07/26 03:20:52;;;;;;;5.85;3.00;;;27.10;50.00;;;;;;5001783;28;20033;-49
2022/07/26 03:23:18;;;;;;;6.00;3.15;;;27.10;50.00;;;;;;4998244;28;20026;-48
2022/07/26 03:25:44;;;;;;;4.97;3.00;;;27.00;50.00;;;;;;5000686;28;20026;-48
2022/07/26 03:28:09;;;;;;;4.78;3.28;;;27.00;50.10;;;;;;5001011;28;20033;-49
2022/07/26 03:30:35;;;;;;;4.90;3.15;;;27.10;50.00;;;;;;5002376;28;20025;-47
2022/07/26 03:33:01;;;;;;;5.05;3.00;;;27.10;50.00;;;;;;5001840;28;20038;-47
2022/07/26 03:35:26;;;;;;;5.00;3.13;;;27.10;49.90;;;;;;5001903;28;20454;-48
2022/07/26 03:37:52;;;;;;;4.60;2.80;;;27.10;49.90;;;;;;5002126;28;20048;-48
2022/07/26 03:40:18;;;;;;;4.00;2.63;;;27.10;49.80;;;;;;5002410;28;20087;-49
2022/07/26 03:42:46;;;;;;;5.05;2.90;;;27.10;49.70;;;;;;5016914;28;20088;-49
2022/07/26 03:45:13;;;;;;;4.82;2.65;;;27.10;49.80;;;;;;5002924;28;20056;-48
2022/07/26 03:47:39;;;;;;;4.32;2.85;;;27.10;49.60;;;;;;5001690;28;20029;-48
2022/07/26 03:50:06;;;;;;;5.07;2.88;;;27.10;49.70;;;;;;5001971;28;20030;-47
2022/07/26 03:52:32;;;;;;;3.90;2.70;;;27.10;49.80;;;;;;5001649;28;20109;-48
2022/07/26 03:54:58;;;;;;;3.65;2.47;;;27.10;49.80;;;;;;5001526;28;20040;-48
2022/07/26 03:57:24;;;;;;;4.80;2.90;;;27.10;49.60;;;;;;5002482;28;20589;-49
2022/07/26 03:59:50;;;;;;;5.53;2.40;;;27.10;49.70;;;;;;5002012;28;20041;-48
2022/07/26 04:02:16;;;;;;;3.63;2.33;;;27.10;49.60;;;;;;5002327;28;20042;-48
2022/07/26 04:04:42;;;;;;;5.22;2.88;;;27.20;49.70;;;;;;4996345;28;20026;-47
2022/07/26 04:07:07;;;;;;;4.28;2.63;;;27.20;49.70;;;;;;5001341;28;20034;-47
2022/07/26 04:09:33;;;;;;;3.78;2.60;;;27.20;49.60;;;;;;5001797;28;20720;-47
2022/07/26 04:11:59;;;;;;;3.72;2.40;;;27.20;49.60;;;;;;5001952;28;20029;-48
2022/07/26 04:14:24;;;;;;;4.50;2.88;;;27.20;49.60;;;;;;5002039;28;20083;-48
2022/07/26 04:16:50;;;;;;;4.45;2.45;;;27.20;50.00;;;;;;5001559;28;20030;-47
2022/07/26 04:19:16;;;;;;;3.10;2.15;;;27.20;49.80;;;;;;5002025;28;20030;-48
2022/07/26 04:21:42;;;;;;;4.68;2.70;;;27.20;50.00;;;;;;4999896;28;20032;-48
2022/07/26 04:24:08;;;;;;;4.70;2.63;;;27.20;49.90;;;;;;5025389;28;20022;-48
2022/07/26 04:26:34;;;;;;;3.72;2.33;;;27.20;50.10;;;;;;5001442;28;20802;-48
2022/07/26 04:28:59;;;;;;;3.50;2.28;;;27.20;50.60;;;;;;5001541;28;20045;-47
2022/07/26 04:31:25;;;;;;;3.38;2.25;;;27.20;49.90;;;;;;5001621;28;20026;-48
2022/07/26 04:33:51;;;;;;;3.90;2.20;;;27.20;49.80;;;;;;5000674;28;20026;-48
2022/07/26 04:36:17;;;;;;;3.78;2.10;;;27.20;49.90;;;;;;4999306;28;20101;-48
2022/07/26 04:38:43;;;;;;;3.85;2.53;;;27.20;49.90;;;;;;5000804;28;20747;-49
2022/07/26 04:41:09;;;;;;;4.70;3.00;;;27.20;50.00;;;;;;5001652;28;20108;-48
2022/07/26 04:43:35;;;;;;;4.22;2.42;;;27.20;49.90;;;;;;5001319;28;20110;-49
2022/07/26 04:46:00;;;;;;;4.43;2.00;;;27.20;50.00;;;;;;4999390;28;20113;-48
2022/07/26 04:48:26;;;;;;;3.90;2.42;;;27.20;49.90;;;;;;4997416;28;20021;-49
2022/07/26 04:50:53;;;;;;;4.32;2.55;;;27.20;49.90;;;;;;4999105;28;20028;-48
2022/07/26 04:53:19;;;;;;;4.00;2.83;;;27.20;50.00;;;;;;5002290;28;20018;-48
2022/07/26 04:55:45;;;;;;;3.88;2.17;;;27.20;50.00;;;;;;5001494;28;20033;-48
2022/07/26 04:58:11;;;;;;;4.00;2.58;;;27.20;50.00;;;;;;5002196;28;20032;-48
2022/07/26 05:00:37;;;;;;;3.97;2.65;;;27.20;49.80;;;;;;5002262;28;20021;-48
2022/07/26 05:03:03;;;;;;;4.72;3.08;;;27.20;53.30;;;;;;5002471;28;20079;-47
2022/07/26 05:05:31;;;;;;;4.80;3.45;;;27.10;54.80;;;;;;5000158;28;20037;-48
2022/07/26 05:07:59;;;;;;;5.25;3.53;;;27.00;54.80;;;;;;5001606;28;20088;-48
2022/07/26 05:10:32;;;;;;;6.45;3.50;;;26.80;55.50;;;;;;5002304;28;20062;-48
2022/07/26 05:12:57;;;;;;;;;;;26.70;55.40;;;;;;5024812;28;20110;-48
2022/07/26 05:15:23;;;;;;;4.57;3.40;;;26.70;55.50;;;;;;5001990;28;20004;-50
2022/07/26 05:17:49;;;;;;;6.00;3.65;;;26.60;56.30;;;;;;5002167;28;20033;-48
2022/07/26 05:20:16;;;;;;;4.57;3.08;;;26.40;57.40;;;;;;5000567;28;20022;-48
2022/07/26 05:22:43;;;;;;;5.60;3.53;;;26.30;57.80;;;;;;4999569;28;20096;-49
2022/07/26 05:25:09;;;;;;;5.00;3.60;;;26.10;58.00;;;;;;5001712;28;20028;-48
2022/07/26 05:27:35;;;;;;;4.45;3.40;;;26.10;58.60;;;;;;5001617;28;20045;-48
2022/07/26 05:30:01;;;;;;;4.45;3.10;;;26.00;58.70;;;;;;4999170;28;20054;-47
2022/07/26 05:32:27;;;;;;;4.55;3.22;;;25.90;58.30;;;;;;5001655;28;20022;-49
2022/07/26 05:34:53;;;;;;;5.78;3.17;;;25.80;59.20;;;;;;4998580;28;20095;-48
2022/07/26 05:37:19;;;;;;;4.25;3.10;;;25.70;59.10;;;;;;5001826;28;20394;-48
2022/07/26 05:39:44;;;;;;;6.55;3.78;;;25.60;59.40;;;;;;5001773;28;20748;-47
2022/07/26 05:42:10;;;;;;;4.95;3.65;;;25.50;60.00;;;;;;5000616;28;20041;-48
2022/07/26 05:44:36;;;;;;;5.93;3.45;;;25.30;60.70;;;;;;5001986;28;20026;-48
2022/07/26 05:47:02;;;;;;;5.40;3.63;;;25.10;61.40;;;;;;5000700;28;20030;-48
2022/07/26 05:49:28;;;;;;;4.85;3.70;;;25.00;62.00;;;;;;5001896;28;20069;-47
2022/07/26 05:51:54;;;;;;;4.30;3.30;;;24.90;62.50;;;;;;5004488;28;20053;-47
2022/07/26 05:54:20;;;;;;;5.00;3.90;;;24.70;62.90;;;;;;5004830;28;20069;-48
2022/07/26 05:56:46;;;;;;;5.40;3.80;;;24.70;62.90;;;;;;5004293;28;20024;-48
2022/07/26 05:59:12;;;;;;;6.22;4.22;;;24.70;63.20;;;;;;5004282;28;20058;-49
2022/07/26 06:01:38;;;;;;;4.97;3.95;;;24.60;63.30;;;;;;5002672;28;20054;-48
2022/07/26 06:04:04;;;;;;;4.75;3.53;;;24.60;65.00;;;;;;5001410;28;20028;-49
2022/07/26 06:06:29;;;;;;;6.00;3.60;;;24.50;63.30;;;;;;5003592;28;20034;-48
2022/07/26 06:08:55;;;;;;;5.18;3.50;;;24.50;63.70;;;;;;4999909;28;20036;-47
2022/07/26 06:11:21;;;;;;;4.68;3.30;;;24.40;63.70;;;;;;5003029;28;20030;-48
2022/07/26 06:13:47;;;;;;;5.05;3.58;;;24.40;63.80;;;;;;5004905;28;20037;-48
2022/07/26 06:16:13;;;;;;;5.47;3.60;;;24.40;65.10;;;;;;5004081;28;20068;-47
2022/07/26 06:18:38;;;;;;;4.72;3.45;;;24.50;64.50;;;;;;5003016;28;20089;-48
2022/07/26 06:21:04;;;;;;;4.95;3.72;;;24.50;64.20;;;;;;5003140;28;20025;-48
2022/07/26 06:23:30;;;;;;;6.35;4.32;;;24.50;64.40;;;;;;5000710;28;20022;-50
2022/07/26 06:25:56;;;;;;;4.32;3.30;;;24.50;64.80;;;;;;5002896;28;20033;-47
2022/07/26 06:28:22;;;;;;;4.93;3.45;;;24.60;64.10;;;;;;5005313;28;20022;-47
2022/07/26 06:30:48;;;;;;;5.25;3.70;;;24.50;64.70;;;;;;5004431;28;20025;-47
2022/07/26 06:33:14;;;;;;;5.93;3.85;;;24.60;65.40;;;;;;5003708;28;20053;-47
2022/07/26 06:35:41;;;;;;;5.97;4.15;;;24.60;65.50;;;;;;5002316;28;20057;-48
2022/07/26 06:38:08;;;;;;;6.38;4.75;;;24.70;65.00;;;;;;4998614;28;20192;-47
2022/07/26 06:40:34;;;;;;;5.63;3.65;;;24.70;65.90;;;;;;5002622;28;20875;-47
2022/07/26 06:43:01;;;;;;;6.13;4.05;;;24.80;64.70;;;;;;5005234;28;20645;-47
2022/07/26 06:45:28;;;;;;;5.20;3.85;;;24.80;64.20;;;;;;5005081;28;20025;-49
2022/07/26 06:47:54;;;;;;;4.78;3.25;;;24.80;64.00;;;;;;5006017;28;20037;-47
2022/07/26 06:50:19;;;;;;;5.15;3.03;;;24.80;64.30;;;;;;5005159;28;20087;-47
2022/07/26 06:52:45;;;;;;;4.43;3.40;;;24.80;63.90;;;;;;5022754;28;20427;-47
2022/07/26 06:55:11;;;;;;;4.72;3.45;;;24.80;63.90;;;;;;5024804;28;20030;-46
2022/07/26 06:57:38;;;;;;;5.28;3.47;;;24.90;64.20;;;;;;5021459;28;20487;-47
2022/07/26 07:00:06;;;;;;;4.32;3.20;;;25.00;63.40;;;;;;5004728;28;20032;-47
2022/07/26 07:02:32;;;;;;;5.30;3.92;;;24.90;62.90;;;;;;5004678;28;20032;-47
2022/07/26 07:04:57;;;;;;;4.93;3.45;;;25.00;63.20;;;;;;5004896;28;20025;-47
2022/07/26 07:07:23;;;;;;;4.40;3.30;;;24.90;63.20;;;;;;5004468;28;20723;-48
2022/07/26 07:09:49;;;;;;;4.80;2.97;;;24.90;63.20;;;;;;5005333;28;20109;-47
2022/07/26 07:12:15;;;;;;;6.05;3.70;;;24.90;63.10;;;;;;5005018;28;20493;-48
2022/07/26 07:14:40;;;;;;;3.97;2.97;;;24.90;63.10;;;;;;4987408;28;20039;-47
2022/07/26 07:17:07;;;;;;;5.45;3.55;;;24.90;62.90;;;;;;5008924;28;20037;-48
2022/07/26 07:19:36;;;;;;;4.35;3.10;;;24.90;62.80;;;;;;5004083;28;20030;-48
2022/07/26 07:22:03;;;;;;;4.30;2.88;;;24.80;62.70;;;;;;5008614;28;20431;-47
2022/07/26 07:24:29;;;;;;;4.70;3.15;;;24.80;62.70;;;;;;5004538;28;20028;-48
2022/07/26 07:26:55;;;;;;;4.03;2.75;;;24.80;63.00;;;;;;5004518;28;20022;-47
2022/07/26 07:29:21;;;;;;;5.03;3.13;;;24.80;62.60;;;;;;5004268;28;20526;-47
2022/07/26 07:31:47;;;;;;;5.30;3.58;;;24.70;62.90;;;;;;5004226;28;20049;-47
2022/07/26 07:34:14;;;;;;;5.53;3.85;;;24.60;62.80;;;;;;5004606;28;20469;-47
2022/07/26 07:36:40;;;;;;;4.78;3.03;;;24.50;63.50;;;;;;5003771;28;20737;-47
2022/07/26 07:39:06;;;;;;;5.60;3.00;;;24.50;63.90;;;;;;5004749;28;20034;-48
2022/07/26 07:41:33;;;;;;;4.30;3.20;;;24.40;64.00;;;;;;5004226;28;20049;-47
2022/07/26 07:43:59;;;;;;;4.32;3.03;;;24.30;64.80;;;;;;5004413;28;20030;-47
2022/07/26 07:46:25;;;;;;;4.90;2.97;;;24.30;64.20;;;;;;5003945;28;20034;-47
2022/07/26 07:48:52;;;;;;;4.55;3.10;;;24.30;64.70;;;;;;5004223;28;20022;-48
2022/07/26 07:51:18;;;;;;;5.07;3.22;;;24.30;65.00;;;;;;5009504;28;20576;-47
2022/07/26 07:53:44;;;;;;;5.20;3.03;;;24.20;64.80;;;;;;5023570;28;20036;-47
2022/07/26 07:56:10;;;;;;;5.10;3.78;;;24.20;65.30;;;;;;5023950;28;20034;-47
2022/07/26 07:58:36;;;;;;;5.18;3.42;;;24.20;65.40;;;;;;5023682;28;20017;-47
2022/07/26 08:01:01;;;;;;;5.10;3.50;;;24.20;65.50;;;;;;5022270;28;20107;-48
2022/07/26 08:03:27;;;;;;;5.43;3.72;;;24.10;65.40;;;;;;5023912;28;20143;-47
2022/07/26 08:05:53;;;;;;;4.70;3.38;;;24.10;65.30;;;;;;5013704;28;20065;-47
2022/07/26 08:08:19;;;;;;;5.03;3.30;;;24.10;65.80;;;;;;5004178;28;20032;-47
2022/07/26 08:10:45;;;;;;;5.32;3.00;;;24.10;66.10;;;;;;5003570;28;20034;-47
2022/07/26 08:13:11;;;;;;;4.50;3.20;;;24.10;65.50;;;;;;5003231;28;20033;-46
2022/07/26 08:15:36;;;;;;;5.38;3.55;;;24.10;65.70;;;;;;5003296;28;20053;-47
2022/07/26 08:18:02;;;;;;;4.93;3.40;;;24.10;65.50;;;;;;5000736;28;20049;-48
2022/07/26 08:20:28;;;;;;;5.32;3.35;;;24.00;65.70;;;;;;5005778;28;20672;-48
2022/07/26 08:22:53;;;;;;;3.97;2.88;;;24.00;66.10;;;;;;5021668;28;20095;-49
2022/07/26 08:25:19;;;;;;;7.00;3.85;;;23.90;65.80;;;;;;5011203;28;20075;-47
2022/07/26 08:27:45;;;;;;;5.13;3.47;;;23.90;66.40;;;;;;5003283;28;20037;-47
2022/07/26 08:30:11;;;;;;;4.63;3.40;;;23.80;66.70;;;;;;5002946;28;20092;-47
2022/07/26 08:32:37;;;;;;;5.00;3.35;;;23.70;66.70;;;;;;5003140;28;20030;-48
2022/07/26 08:35:03;;;;;;;4.97;3.35;;;23.80;66.50;;;;;;5001480;28;20646;-46
2022/07/26 08:37:28;;;;;;;5.10;3.60;;;23.80;66.60;;;;;;5003210;28;20040;-47
2022/07/26 08:39:54;;;;;;;5.15;3.20;;;23.80;66.20;;;;;;5002701;28;20091;-46
2022/07/26 08:42:24;;;;;;;4.93;3.30;;;23.90;66.20;;;;;;5003254;28;20401;-47
2022/07/26 08:44:50;;;;;;;4.95;3.42;;;24.00;65.80;;;;;;5003507;28;20041;-47
2022/07/26 08:47:18;;;;;;;4.10;2.97;;;24.00;65.90;;;;;;5002949;28;20065;-47
2022/07/26 08:49:44;;;;;;;4.25;3.13;;;24.10;65.30;;;;;;5002847;28;20068;-46
2022/07/26 08:52:11;;;;;;;4.28;3.08;;;24.10;64.70;;;;;;5015852;28;20046;-48
2022/07/26 08:54:42;;;;;;;4.88;3.38;;;24.20;64.50;;;;;;5022329;28;20084;-48
2022/07/26 08:57:08;;;;;;;4.70;2.90;;;24.30;64.80;;;;;;5022079;28;20102;-48
2022/07/26 08:59:34;;;;;;;5.25;3.50;;;24.30;65.00;;;;;;5022829;28;20057;-48
2022/07/26 09:02:02;;;;;;;4.43;2.97;;;24.40;65.40;;;;;;5002881;28;20026;-47
2022/07/26 09:04:35;;;;;;;5.40;3.13;;;24.40;64.20;;;;;;5018908;28;20389;-47
2022/07/26 09:07:17;;;;;;;4.05;2.72;;;24.40;64.30;;;;;;5004581;28;20025;-47
2022/07/26 09:10:05;;;;;;;5.85;3.60;;;24.50;65.40;;;;;;5002464;28;20527;-48
2022/07/26 09:12:31;;;;;;;4.72;3.10;;;24.60;65.00;;;;;;5002801;28;20113;-47
2022/07/26 09:14:59;;;;;;;4.70;3.30;;;24.60;65.30;;;;;;5002080;28;20085;-48
2022/07/26 09:17:40;;;;;;;6.55;3.40;;;24.60;64.70;;;;;;5003141;28;20105;-47
2022/07/26 09:20:09;;;;;;;3.90;2.85;;;24.60;64.40;;;;;;5002641;28;20021;-48
2022/07/26 09:22:55;;;;;;;4.30;3.25;;;24.60;64.20;;;;;;5002439;28;20029;-47
2022/07/26 09:25:23;;;;;;;3.95;3.05;;;24.70;64.50;;;;;;5004709;28;20022;-47
2022/07/26 09:27:49;;;;;;;4.78;3.65;;;24.80;64.30;;;;;;5006792;28;20503;-48
2022/07/26 09:30:15;;;;;;;4.43;3.35;;;24.80;64.50;;;;;;5006879;28;20080;-47
2022/07/26 09:33:00;;;;;;;4.70;3.72;;;24.90;64.60;;;;;;5006290;28;20041;-47
2022/07/26 09:35:26;;;;;;;5.78;3.40;;;24.90;64.70;;;;;;5021439;28;20029;-48
2022/07/26 09:37:52;;;;;;;4.80;3.47;;;24.90;64.20;;;;;;5006637;28;20561;-47
2022/07/26 09:40:18;;;;;;;4.65;3.47;;;24.90;64.10;;;;;;5006541;28;20052;-48
2022/07/26 09:42:58;;;;;;;4.78;3.45;;;24.90;64.00;;;;;;5006047;28;20034;-48
2022/07/26 09:45:26;;;;;;;5.18;3.33;;;25.00;64.10;;;;;;5005816;28;20026;-48
2022/07/26 09:47:52;;;;;;;5.60;3.75;;;25.00;63.60;;;;;;5006964;28;20579;-47
2022/07/26 09:50:21;;;;;;;3.88;3.15;;;25.00;64.00;;;;;;5005588;28;20486;-47
2022/07/26 09:53:08;;;;;;;5.55;3.22;;;25.00;63.80;;;;;;5006429;28;20041;-47
2022/07/26 09:55:36;;;;;;;5.15;3.20;;;25.00;63.40;;;;;;5005710;28;20031;-47
2022/07/26 09:58:03;;;;;;;4.05;3.15;;;25.00;64.20;;;;;;5006467;28;20018;-47
2022/07/26 10:00:32;;;;;;;5.18;3.50;;;25.10;63.30;;;;;;5006280;28;20025;-48
2022/07/26 10:02:59;;;;;;;6.15;3.80;;;25.10;63.80;;;;;;5005991;28;20030;-47
2022/07/26 10:05:25;;;;;;;4.93;3.53;;;25.10;63.80;;;;;;5005535;28;20053;-48
2022/07/26 10:07:51;;;;;;;4.85;3.10;;;25.10;64.40;;;;;;5005884;28;20367;-48
2022/07/26 10:10:29;;;;;;;5.60;4.07;;;25.10;64.20;;;;;;5006121;28;20030;-47
2022/07/26 10:12:56;;;;;;;5.32;3.25;;;25.10;64.40;;;;;;5008501;28;20064;-47
2022/07/26 10:15:40;;;;;;;4.47;3.38;;;25.10;64.00;;;;;;5025518;28;20022;-47
2022/07/26 10:18:07;;;;;;;5.28;3.55;;;25.10;63.60;;;;;;5025432;28;20025;-47
2022/07/26 10:20:45;;;;;;;4.78;3.83;;;25.10;64.70;;;;;;5021019;28;20105;-47
2022/07/26 10:23:30;;;;;;;5.97;3.58;;;25.10;64.60;;;;;;5004646;28;20026;-47
2022/07/26 10:25:56;;;;;;;5.97;3.50;;;25.20;63.60;;;;;;5000383;28;20022;-47
2022/07/26 10:28:27;;;;;;;5.13;3.58;;;25.20;64.00;;;;;;5005540;28;20038;-48
2022/07/26 10:31:18;;;;;;;5.95;3.63;;;25.20;64.30;;;;;;5005835;28;20026;-47
2022/07/26 10:33:47;;;;;;;5.05;3.55;;;25.20;63.80;;;;;;5005890;28;20053;-48
2022/07/26 10:36:30;;;;;;;5.65;3.85;;;25.20;64.70;;;;;;5004460;28;20026;-47
2022/07/26 10:39:11;;;;;;;5.38;4.00;;;25.20;64.10;;;;;;4994816;28;20034;-47
2022/07/26 10:41:43;;;;;;;4.47;3.42;;;25.20;63.60;;;;;;5004035;28;20681;-48
2022/07/26 10:44:21;;;;;;;5.45;3.97;;;25.30;63.60;;;;;;5005201;28;20716;-48
2022/07/26 10:47:06;;;;;;;5.75;4.18;;;25.30;63.80;;;;;;5000275;28;20163;-48
2022/07/26 10:49:35;;;;;;;6.75;4.50;;;25.30;64.80;;;;;;5004453;28;20022;-48
2022/07/26 10:52:12;;;;;;;5.53;4.47;;;25.30;65.20;;;;;;5004773;28;20032;-48
2022/07/26 10:54:56;;;;;;;7.00;4.65;;;25.30;64.70;;;;;;5001481;28;20449;-46
2022/07/26 10:57:22;;;;;;;5.70;4.15;;;25.30;65.00;;;;;;5002822;28;20046;-48
2022/07/26 10:59:48;;;;;;;5.40;4.13;;;25.30;65.00;;;;;;5001777;28;20021;-47
2022/07/26 11:02:18;;;;;;;5.15;3.60;;;25.30;64.30;;;;;;5003102;28;20080;-48
2022/07/26 11:04:44;;;;;;;5.10;4.22;;;25.30;63.60;;;;;;5004014;28;20543;-48
2022/07/26 11:07:11;;;;;;;5.32;4.03;;;25.40;63.60;;;;;;5003886;28;20028;-48
2022/07/26 11:09:38;;;;;;;5.38;4.10;;;25.40;63.30;;;;;;5004894;28;20030;-48
2022/07/26 11:12:15;;;;;;;5.25;3.92;;;25.50;63.70;;;;;;5004107;28;20034;-48
2022/07/26 11:14:41;;;;;;;6.15;3.90;;;25.50;63.80;;;;;;5004822;28;20026;-48
2022/07/26 11:17:07;;;;;;;6.45;4.35;;;25.60;63.20;;;;;;5003114;28;20041;-48
2022/07/26 11:19:38;;;;;;;8.23;4.70;;;25.60;65.20;;;;;;5005013;28;20041;-47
2022/07/26 11:22:04;;;;;;;6.18;4.85;;;25.60;65.10;;;;;;5004273;28;20054;-48
2022/07/26 11:24:30;;;;;;;5.97;4.68;;;25.60;65.30;;;;;;5004015;28;20057;-47
2022/07/26 11:27:02;;;;;;;6.57;5.03;;;25.60;63.80;;;;;;5004864;28;20033;-49
2022/07/26 11:29:29;;;;;;;5.80;4.87;;;25.60;63.70;;;;;;5005015;28;20579;-47
2022/07/26 11:31:55;;;;;;;6.03;5.18;;;25.60;64.20;;;;;;5003637;28;20080;-47
2022/07/26 11:34:23;;;;;;;5.38;4.60;;;25.60;64.10;;;;;;5004344;28;20061;-48
2022/07/26 11:36:53;;;;;;;5.95;4.63;;;25.60;63.80;;;;;;5004189;28;20034;-48
2022/07/26 11:39:24;;;;;;;5.95;4.90;;;25.60;63.80;;;;;;5004140;28;20541;-47
2022/07/26 11:41:55;;;;;;;5.53;4.57;;;25.60;64.20;;;;;;5004410;28;20026;-48
2022/07/26 11:44:22;;;;;;;5.60;4.70;;;25.60;63.70;;;;;;5004744;28;20018;-48
2022/07/26 11:46:48;;;;;;;5.70;4.90;;;25.60;63.70;;;;;;5002995;28;20038;-47
2022/07/26 11:49:19;;;;;;;6.13;4.75;;;25.60;63.30;;;;;;4992310;28;20034;-47
2022/07/26 11:52:03;;;;;;;6.50;4.88;;;25.60;62.70;;;;;;5000510;28;20433;-48
2022/07/26 11:54:32;;;;;;;8.02;5.63;;;25.60;63.00;;;;;;5003256;28;20033;-47
2022/07/26 11:57:01;;;;;;;6.80;5.25;;;25.60;63.40;;;;;;5001263;28;20022;-48
2022/07/26 11:59:28;;;;;;;6.10;5.10;;;25.60;63.00;;;;;;4999802;28;20664;-48
2022/07/26 12:01:56;;;;;;;6.65;5.00;;;25.60;63.20;;;;;;5000758;28;20033;-49
2022/07/26 12:04:27;;;;;;;7.25;5.32;;;25.60;64.20;;;;;;5000788;28;20120;-48
2022/07/26 12:06:54;;;;;;;8.30;5.55;;;25.70;63.20;;;;;;5001388;28;20045;-48
2022/07/26 12:09:50;;;;;;;6.20;5.30;;;25.70;62.50;;;;;;5001305;28;20041;-49
2022/07/26 12:12:26;;;;;;;6.95;4.63;;;25.60;63.00;;;;;;5002658;28;20089;-49
2022/07/26 12:15:03;;;;;;;7.50;4.15;;;25.70;61.20;;;;;;5003176;28;20060;-49
2022/07/26 12:17:29;;;;;;;4.30;3.15;;;25.60;59.30;;;;;;5003544;28;20048;-48
2022/07/26 12:20:08;;;;;;;4.35;3.22;;;25.60;59.10;;;;;;5003221;28;20041;-48
2022/07/26 12:22:34;;;;;;;5.32;3.15;;;25.60;59.40;;;;;;5003439;28;20022;-48
2022/07/26 12:25:00;;;;;;;6.18;3.60;;;25.60;59.50;;;;;;5003130;28;20520;-49
2022/07/26 12:27:31;;;;;;;3.80;3.03;;;25.60;59.30;;;;;;5003076;28;20633;-48
2022/07/26 12:30:00;;;;;;;6.00;3.60;;;25.70;58.60;;;;;;5003646;28;20104;-48
2022/07/26 12:32:36;;;;;;;4.25;3.05;;;25.70;58.50;;;;;;5003076;28;20018;-48
2022/07/26 12:35:10;;;;;;;4.00;3.15;;;25.70;59.00;;;;;;5003768;28;20068;-47
2022/07/26 12:37:47;;;;;;;4.43;3.42;;;25.70;58.90;;;;;;5002410;28;20026;-48
2022/07/26 12:40:17;;;;;;;4.38;3.58;;;25.80;59.00;;;;;;5002827;28;20087;-48
2022/07/26 12:42:52;;;;;;;4.45;3.30;;;25.80;58.60;;;;;;5001945;28;20030;-48
2022/07/26 12:45:24;;;;;;;4.85;3.90;;;25.80;58.70;;;;;;5003213;28;20718;-48
2022/07/26 12:47:52;;;;;;;4.80;4.00;;;25.80;58.60;;;;;;5003636;28;20104;-47